Home > Products > Valid Products > MTR

000
SAUS43 KABR 311557
MTR8D3
METAR K8D3 311556Z AUTO 03016KT M09/M11 A3026 RMK AO1 SLP275
T10891111





000
SAUS43 KABR 311457
MTR8D3
METAR K8D3 311456Z AUTO 03016KT M08/M11 A3025 RMK AO1 SLP271
T10831106 51014





000
SAUS43 KABR 311358
MTR8D3
METAR K8D3 311356Z AUTO 03017KT M08/M10 A3024 RMK AO1 SLP268
T10831100





000
SAUS43 KABR 311257
MTR8D3
METAR K8D3 311256Z AUTO 03019KT M08/M09 A3022 RMK AO1 SLP260
T10781089





000
SAUS43 KABR 311158
MTR8D3
METAR K8D3 311156Z AUTO 03019KT M07/M08 A3020 RMK AO1 SLP252
T10671083 11028 21067 50006





000
SAUS43 KABR 311057
MTR8D3
METAR K8D3 311056Z AUTO 03014KT M06/M07 A3021 RMK AO1 SLP252
T10561072





000
SAUS43 KABR 310958
MTR8D3
METAR K8D3 310956Z AUTO 02015KT M05/M06 A3019 RMK AO1 SLP245
T10501061





000
SAUS43 KABR 310858
MTR8D3
METAR K8D3 310856Z AUTO 02015KT M03/M04 A3019 RMK AO1 SLP241
T10331044 53011





000
SAUS43 KABR 310757
MTR8D3
METAR K8D3 310756Z AUTO 36014KT M03/M04 A3017 RMK AO1 SLP234
T10331039





000
SAUS43 KABR 310658
MTR8D3
METAR K8D3 310656Z AUTO 35012KT M03/M04 A3015 RMK AO1 SLP232
T10281039





000
SAUS43 KABR 310558
MTR8D3
METAR K8D3 310556Z AUTO 35011KT M03/M04 A3015 RMK AO1 SLP233
T10281044 10017 21028 400441111 53005





000
SAUS43 KABR 310458
MTR8D3
METAR K8D3 310456Z AUTO 35013KT M01/M03 A3013 RMK AO1 SLP227
T10111028





000
SAUS43 KABR 310401
MTR8D3
METAR K8D3 310356Z AUTO 32008KT M01/M02 A3013 RMK AO1 SLP229
T10061022





000
SAUS43 KABR 310258
MTR8D3
METAR K8D3 310256Z AUTO 31006KT M01/M02 A3014 RMK AO1 SLP233
T10061022 53003





000
SAUS43 KABR 310159
MTR8D3
METAR K8D3 310156Z AUTO 33003KT 00/M02 A3013 RMK AO1 SLP231
T00001022





000
SAUS43 KABR 310057
MTR8D3
METAR K8D3 310056Z AUTO 33003KT 00/M02 A3013 RMK AO1 SLP233
T00001022





000
SAUS43 KABR 302358
MTR8D3
METAR K8D3 302356Z AUTO 29008KT 02/M02 A3013 RMK AO1 SLP228
T00221017 10044 21011 55004





000
SAUS43 KABR 302258
MTR8D3
METAR K8D3 302256Z AUTO 27009KT 03/M02 A3012 RMK AO1 SLP225
T00281017





000
SAUS43 KABR 302059
MTR8D3
METAR K8D3 302056Z AUTO 23013KT 04/M02 A3014 RMK AO1 SLP232
T00391022 56038





000
SAUS43 KABR 301958
MTR8D3
METAR K8D3 301956Z AUTO 21014KT 04/M02 A3017 RMK AO1 SLP241
T00391022





000
SAUS43 KABR 301859
MTR8D3
METAR K8D3 301856Z AUTO 17015KT 01/M03 A3020 RMK AO1 SLP254
T00111033





000
SAUS43 KABR 301759
MTR8D3
METAR K8D3 301756Z AUTO 17017KT M01/M05 A3026 RMK AO1 SLP275
T10111050 11011 21100 58039





000
SAUS43 KABR 301658
MTR8D3
METAR K8D3 301656Z AUTO 18015KT M03/M07 A3031 RMK AO1 PRESFR SLP294
T10331067





000
SAUS43 KABR 301558
MTR8D3
METAR K8D3 301556Z AUTO 16013KT M06/M08 A3035 RMK AO1 SLP309
T10611078





000
SAUS43 KABR 301457
MTR8D3
METAR K8D3 301456Z AUTO 15010KT M09/M10 A3037 RMK AO1 SLP322
T10891100 58020





000
SAUS43 KABR 301357
MTR8D3
METAR K8D3 301356Z AUTO 15008KT M10/M11 A3040 RMK AO1 SLP331
T11001111





000
SAUS43 KABR 301257
MTR8D3
METAR K8D3 301256Z AUTO 16008KT M10/M11 A3041 RMK AO1 SLP335
T11001111





000
SAUS43 KABR 301158
MTR8D3
METAR K8D3 301156Z AUTO 15007KT M09/M11 A3043 RMK AO1 SLP341
T10941106 11089 21111 56021





000
SAUS43 KABR 301059
MTR8D3
METAR K8D3 301056Z AUTO 17008KT M09/M11 A3044 RMK AO1 SLP343
T10941111





000
SAUS43 KABR 300958
MTR8D3
METAR K8D3 300956Z AUTO 16008KT M11/M12 A3047 RMK AO1 SLP352
T11061122





000
SAUS43 KABR 300859
MTR8D3
METAR K8D3 300856Z AUTO 14007KT M11/M13 A3050 RMK AO1 SLP363
T11111128 56017





000
SAUS43 KABR 300757
MTR8D3
METAR K8D3 300756Z AUTO 13007KT M11/M12 A3051 RMK AO1 SLP367
T11061122





000
SAUS43 KABR 300700
MTR8D3
METAR K8D3 300656Z AUTO 10005KT M09/M12 A3052 RMK AO1 SLP371
T10941122





000
SAUS43 KABR 300604 COR
MTR8D3
METAR K8D3 300556Z AUTO 05003KT M09/M12 A3055 RMK AO1 SLP378
T10891122 11067 21089 410061089 58002





000
SAUS43 KABR 300602 COR
MTR8D3
METAR K8D3 300556Z AUTO 05003KT M09/M12 A3055 RMK AO1 SLP378
T10891122 11067 21089 410061089 58002





000
SAUS43 KABR 300600
MTR8D3
METAR K8D3 300556Z AUTO 05003KT M09/M12 A3055 RMK AO1 SLP378
T10891122 11067 21089 410061089 58002





000
SAUS43 KABR 300457
MTR8D3
METAR K8D3 300456Z AUTO VRB03KT M09/M12 A3056 RMK AO1 SLP380
T10891122





000
SAUS43 KABR 300358
MTR8D3
METAR K8D3 300356Z AUTO 01009KT M09/M12 A3056 RMK AO1 SLP380
T10891122





000
SAUS43 KABR 300257
MTR8D3
METAR K8D3 300256Z AUTO 36007KT M09/M12 A3055 RMK AO1 SLP379
T10891122 51014





000
SAUS43 KABR 300157
MTR8D3
METAR K8D3 300156Z AUTO 36006KT M08/M12 A3054 RMK AO1 SLP372
T10831117





000
SAUS43 KABR 300057
MTR8D3
METAR K8D3 300056Z AUTO 02012KT M08/M12 A3053 RMK AO1 SLP368
T10781117





000
SAUS43 KABR 292357
MTR8D3
METAR K8D3 292356Z AUTO 01011KT M07/M10 A3051 RMK AO1 SLP361
T10671100 11044 21067 51017





000
SAUS43 KABR 292258
MTR8D3
METAR K8D3 292256Z AUTO 01014KT M06/M10 A3049 RMK AO1 SLP355
T10611100





000
SAUS43 KABR 292101
MTR8D3
METAR K8D3 292056Z AUTO 36020G25KT M06/M09 A3046 RMK AO1 SLP342
T10561089 51008





000
SAUS43 KABR 291958
MTR8D3
METAR K8D3 291956Z AUTO 01016KT M05/M08 A3045 RMK AO1 SLP339
T10501083





000
SAUS43 KABR 291901
MTR8D3
METAR K8D3 291856Z AUTO 02016KT M05/M07 A3044 RMK AO1 PK WND
01026/1811 SLP335 T10501072





000
SAUS43 KABR 291758
MTR8D3
METAR K8D3 291756Z AUTO 01017KT M04/M06 A3043 RMK AO1 SLP331
T10441061 11028 21044 51025





000
SAUS43 KABR 291659
MTR8D3
METAR K8D3 291656Z AUTO 36019KT M04/M06 A3042 RMK AO1 PK WND
36026/1646 SLP324 T10391056





000
SAUS43 KABR 291457
MTR8D3
METAR K8D3 291456Z AUTO 01014KT M04/M06 A3036 RMK AO1 PK WND
36029/1406 SLP304 T10391056 53035





000
SAUS43 KABR 291358
MTR8D3
METAR K8D3 291356Z AUTO 36021G27KT M03/M06 A3031 RMK AO1 PK WND
01027/1356 SLP287 T10281056





000
SAUS43 KABR 291257
MTR8D3
METAR K8D3 291256Z AUTO 36013KT M03/M05 A3028 RMK AO1 PK WND
35033/1207 SLP276 T10281050





000
SAUS43 KABR 291216 COR
MTR8D3
METAR K8D3 291156Z AUTO 35020G27KT M03/M06 A3025 RMK AO1 PK WND
35029/1102 SLP265 T10281056 11006 21028 53030





000
SAUS43 KABR 291214 COR
MTR8D3
METAR K8D3 291156Z AUTO 35020G27KT M03/M06 A3025 RMK AO1 PK WND
35029/1102 SLP265 T10281056 11006 21028 53030





000
SAUS43 KABR 291212 COR
MTR8D3
METAR K8D3 291156Z AUTO 35020G27KT M03/M06 A3025 RMK AO1 PK WND
35029/1102 SLP265 T10281056 11006 21028 53030





000
SAUS43 KABR 291209 COR
MTR8D3
METAR K8D3 291156Z AUTO 35020G27KT M03/M06 A3025 RMK AO1 PK WND
35029/1102 SLP265 T10281056 11006 21028 53030





000
SAUS43 KABR 291206 COR
MTR8D3
METAR K8D3 291156Z AUTO 35020G27KT M03/M06 A3025 RMK AO1 PK WND
35029/1102 SLP265 T10281056 11006 21028 53030





000
SAUS43 KABR 291204 COR
MTR8D3
METAR K8D3 291156Z AUTO 35020G27KT M03/M06 A3025 RMK AO1 PK WND
35029/1102 SLP265 T10281056 11006 21028 53030





000
SAUS43 KABR 291201 COR
MTR8D3
METAR K8D3 291156Z AUTO 35020G27KT M03/M06 A3025 RMK AO1 PK WND
35029/1102 SLP265 T10281056 11006 21028 53030





000
SAUS43 KABR 291159 COR
MTR8D3
METAR K8D3 291156Z AUTO 35020G27KT M03/M06 A3025 RMK AO1 PK WND
35029/1102 SLP265 T10281056 11006 21028 53030





000
SAUS43 KABR 291157
MTR8D3
METAR K8D3 291156Z AUTO 35020G27KT M03/M06 A3025 RMK AO1 PK WND
35029/1102 SLP265 T10281056 11006 21028 53030





000
SAUS43 KABR 291058
MTR8D3
METAR K8D3 291056Z AUTO 35023G30KT M03/M06 A3022 RMK AO1 PK WND
34033/1035 SLP253 T10281056





000
SAUS43 KABR 290958
MTR8D3
METAR K8D3 290956Z AUTO 35021G31KT M02/M04 A3018 RMK AO1 PK WND
36033/0917 SLP241 T10221044





000
SAUS43 KABR 290857
MTR8D3
METAR K8D3 290856Z AUTO 36025G34KT M02/M04 A3016 RMK AO1 PK WND
35037/0811 SLP233 T10221044 53034





000
SAUS43 KABR 290757
MTR8D3
METAR K8D3 290756Z AUTO 35028G35KT M02/M04 A3012 RMK AO1 PK WND
35037/0731 SLP218 T10171039





000
SAUS43 KABR 290658
MTR8D3
METAR K8D3 290656Z AUTO 35019G31KT M01/M02 A3007 RMK AO1 PK WND
35032/0628 SLP202 T10061022





000
SAUS43 KABR 290557
MTR8D3
METAR K8D3 290556Z AUTO 35023G33KT M01/M02 A3005 RMK AO1 PK WND
34036/0501 SLP197 T10061022 10017 21006 400221006 51037





000
SAUS43 KABR 290458
MTR8D3
METAR K8D3 290456Z AUTO 35021KT M01/M01 A3002 RMK AO1 PK WND
35032/0424 SLP185 T10061011





000
SAUS43 KABR 290357
MTR8D3
METAR K8D3 290356Z AUTO 35025G30KT 00/M01 A2998 RMK AO1 PK WND
35033/0343 SLP172 T00001006





000
SAUS43 KABR 290303 COR
MTR8D3
METAR K8D3 290256Z AUTO 35019G25KT 01/01 A2994 RMK AO1 PK WND
36030/0240 SLP158 T00060006 53040





000
SAUS43 KABR 290301 COR
MTR8D3
METAR K8D3 290256Z AUTO 35019G25KT 01/01 A2994 RMK AO1 PK WND
36030/0240 SLP158 T00060006 53040





000
SAUS43 KABR 290259
MTR8D3
METAR K8D3 290256Z AUTO 35019G25KT 01/01 A2994 RMK AO1 PK WND
36030/0240 SLP158 T00060006 53040





000
SAUS43 KABR 290158
MTR8D3
METAR K8D3 290156Z AUTO 35016G25KT 01/01 A2989 RMK AO1 PK WND
35026/0101 SLP141 T00060006





000
SAUS43 KABR 290058
MTR8D3
METAR K8D3 290056Z AUTO 35019G30KT 01/01 A2986 RMK AO1 PK WND
35030/0054 SLP131 T00110006





000
SAUS43 KABR 290058
MTR8D3
METAR K8D3 290056Z AUTO 35019G30KT 01/01 A2986 RMK AO1 PK WND
35030/0054 SLP131 T00110006





000
SAUS43 KABR 282258
MTR8D3
METAR K8D3 282256Z AUTO 33004KT 02/01 A2978 RMK AO1 SLP102 T00220006





000
SAUS43 KABR 282158
MTR8D3
METAR K8D3 282156Z AUTO 00000KT 02/01 A2975 RMK AO1 SLP091 T00220011





000
SAUS43 KABR 282057
MTR8D3
METAR K8D3 282056Z AUTO 00000KT 02/01 A2973 RMK AO1 SLP085 T00170006
55006





000
SAUS43 KABR 281958
MTR8D3
METAR K8D3 281956Z AUTO 18006KT 02/01 A2972 RMK AO1 SLP081 T00170006





000
SAUS43 KABR 281858
MTR8D3
METAR K8D3 281856Z AUTO 17007KT 01/00 A2974 RMK AO1 SLP090 T00110000





000
SAUS43 KABR 281757
MTR8D3
METAR K8D3 281756Z AUTO 18007KT 01/00 A2975 RMK AO1 SLP093 T00060000
10006 21006 56008





000
SAUS43 KABR 281657
MTR8D3
METAR K8D3 281656Z AUTO 17012KT 01/00 A2976 RMK AO1 SLP095 T00060000





    US Dept of Commerce
    National Oceanic and Atmospheric Administration
    National Weather Service
    1325 East West Highway
    Silver Spring, MD 20910
    Page Author: NWS Internet Services Team
Disclaimer
Information Quality
Credits
Glossary
Privacy Policy
Freedom of Information Act (FOIA)
About Us
Career Opportunities